createdAt,value
2023-04-07T00:02:08.075Z,8.65
2023-04-07T00:04:35.893Z,9.05
2023-04-07T00:07:03.548Z,8.30
2023-04-07T00:09:31.063Z,8.18
2023-04-07T00:11:58.403Z,8.50
2023-04-07T00:14:25.798Z,8.20
2023-04-07T00:16:53.154Z,8.48
2023-04-07T00:19:20.439Z,8.32
2023-04-07T00:21:47.796Z,8.63
2023-04-07T00:24:18.515Z,8.77
2023-04-07T00:26:54.653Z,8.30
2023-04-07T00:29:22.029Z,7.88
2023-04-07T00:31:49.358Z,8.00
2023-04-07T00:34:16.622Z,8.13
2023-04-07T00:36:43.977Z,8.65
2023-04-07T00:39:11.291Z,8.63
2023-04-07T00:41:38.611Z,8.07
2023-04-07T00:44:05.954Z,8.13
2023-04-07T00:46:33.322Z,7.93
2023-04-07T00:49:00.975Z,8.15
2023-04-07T00:51:28.637Z,8.20
2023-04-07T00:53:56.527Z,7.80
2023-04-07T00:56:24.220Z,7.95
2023-04-07T00:58:51.585Z,8.10
2023-04-07T01:01:23.672Z,8.13
2023-04-07T01:04:26.429Z,7.68
2023-04-07T01:06:54.371Z,8.27
2023-04-07T01:09:48.800Z,7.32
2023-04-07T01:12:23.734Z,7.40
2023-04-07T01:14:52.235Z,8.80
2023-04-07T01:17:38.114Z,7.63
2023-04-07T01:20:08.306Z,8.20
2023-04-07T01:22:46.351Z,7.70
2023-04-07T01:25:22.535Z,7.55
2023-04-07T01:27:53.126Z,8.48
2023-04-07T01:30:20.529Z,7.97
2023-04-07T01:32:51.688Z,7.38
2023-04-07T01:35:19.184Z,7.82
2023-04-07T01:37:48.833Z,7.07
2023-04-07T01:40:16.222Z,7.53
2023-04-07T01:42:43.526Z,7.57
2023-04-07T01:45:11.002Z,7.40
2023-04-07T01:47:38.441Z,7.60
2023-04-07T01:50:06.525Z,7.95
2023-04-07T01:52:33.986Z,7.35
2023-04-07T01:55:01.354Z,7.60
2023-04-07T01:57:29.417Z,7.13
2023-04-07T02:00:02.125Z,6.97
2023-04-07T02:02:44.613Z,7.68
2023-04-07T02:05:13.615Z,6.75
2023-04-07T02:08:05.053Z,7.38
2023-04-07T02:10:36.252Z,6.50
2023-04-07T02:13:05.108Z,6.03
2023-04-07T02:15:32.938Z,5.72
2023-04-07T02:18:00.896Z,5.60
2023-04-07T02:20:28.607Z,5.97
2023-04-07T02:22:55.910Z,5.90
2023-04-07T02:25:30.816Z,5.07
2023-04-07T02:27:59.173Z,5.40
2023-04-07T02:30:27.944Z,5.43
2023-04-07T02:32:55.472Z,5.82
2023-04-07T02:35:23.002Z,4.90
2023-04-07T02:37:50.666Z,5.88
2023-04-07T02:40:18.043Z,5.28
2023-04-07T02:42:46.728Z,5.38
2023-04-07T02:45:14.088Z,5.47
2023-04-07T02:47:41.486Z,5.40
2023-04-07T02:50:09.151Z,5.00
2023-04-07T02:52:36.837Z,5.70
2023-04-07T02:55:10.642Z,5.55
2023-04-07T02:57:38.112Z,5.30
2023-04-07T03:00:10.433Z,5.30
2023-04-07T03:03:12.978Z,5.18
2023-04-07T03:05:43.976Z,5.00
2023-04-07T03:08:13.168Z,5.90
2023-04-07T03:10:40.993Z,5.50
2023-04-07T03:13:09.485Z,5.82
2023-04-07T03:15:38.037Z,5.75
2023-04-07T03:18:06.846Z,5.88
2023-04-07T03:20:34.875Z,5.90
2023-04-07T03:23:08.575Z,5.77
2023-04-07T03:25:36.747Z,6.10
2023-04-07T03:28:04.565Z,5.75
2023-04-07T03:30:35.034Z,6.05
2023-04-07T03:33:02.910Z,5.65
2023-04-07T03:35:31.790Z,6.72
2023-04-07T03:37:59.114Z,6.63
2023-04-07T03:40:26.892Z,6.32
2023-04-07T03:42:54.269Z,6.50
2023-04-07T03:45:22.663Z,6.20
2023-04-07T03:47:54.178Z,6.57
2023-04-07T03:50:22.556Z,6.65
2023-04-07T03:53:02.020Z,6.60
2023-04-07T03:55:31.939Z,6.43
2023-04-07T03:58:06.136Z,6.65
2023-04-07T04:00:36.629Z,6.68
2023-04-07T04:03:09.881Z,7.10
2023-04-07T04:08:16.636Z,7.40
2023-04-07T04:10:44.203Z,6.78
2023-04-07T04:13:12.308Z,7.22
2023-04-07T04:15:41.451Z,7.70
2023-04-07T04:18:14.363Z,6.88
2023-04-07T04:20:41.727Z,7.40
2023-04-07T04:23:09.439Z,7.25
2023-04-07T04:25:39.745Z,6.85
2023-04-07T04:28:09.419Z,7.50
2023-04-07T04:30:36.853Z,7.45
2023-04-07T04:33:04.842Z,7.45
2023-04-07T04:35:52.459Z,7.75
2023-04-07T04:38:21.284Z,7.50
2023-04-07T04:41:14.576Z,7.85
2023-04-07T04:43:42.484Z,7.40
2023-04-07T04:46:12.127Z,7.07
2023-04-07T04:48:42.902Z,7.95
2023-04-07T04:51:10.291Z,7.82
2023-04-07T04:53:39.543Z,7.97
2023-04-07T04:56:08.224Z,7.70
2023-04-07T04:58:47.597Z,7.55
2023-04-07T05:01:22.554Z,7.85
2023-04-07T05:03:59.051Z,8.25
2023-04-07T05:06:29.370Z,8.63
2023-04-07T05:09:00.640Z,7.95
2023-04-07T05:11:33.505Z,7.88
2023-04-07T05:14:00.967Z,7.18
2023-04-07T05:16:28.388Z,8.13
2023-04-07T05:18:56.220Z,8.00
2023-04-07T05:21:27.107Z,8.23
2023-04-07T05:23:57.265Z,8.50
2023-04-07T05:26:25.021Z,8.95
2023-04-07T05:28:52.408Z,7.47
2023-04-07T05:31:23.717Z,8.68
2023-04-07T05:33:55.055Z,8.43
2023-04-07T05:36:25.611Z,8.52
2023-04-07T05:38:56.354Z,8.63
2023-04-07T05:41:23.812Z,8.55
2023-04-07T05:43:51.788Z,8.90
2023-04-07T05:46:19.419Z,8.40
2023-04-07T05:48:54.575Z,9.13
2023-04-07T05:51:21.950Z,8.30
2023-04-07T05:53:51.134Z,8.25
2023-04-07T05:56:21.850Z,8.63
2023-04-07T05:58:49.460Z,8.05
2023-04-07T06:01:17.651Z,9.38
2023-04-07T06:03:45.157Z,10.70
2023-04-07T06:06:16.982Z,11.40
2023-04-07T06:08:46.226Z,9.27
2023-04-07T06:11:14.074Z,9.50
2023-04-07T06:13:41.403Z,8.90
2023-04-07T06:16:09.525Z,8.90
2023-04-07T06:18:38.258Z,8.77
2023-04-07T06:21:07.406Z,9.55
2023-04-07T06:23:34.753Z,8.90
2023-04-07T06:26:02.183Z,8.80
2023-04-07T06:28:30.582Z,9.18
2023-04-07T06:30:59.837Z,9.15
2023-04-07T06:33:28.595Z,8.38
2023-04-07T06:35:57.567Z,8.57
2023-04-07T06:38:24.944Z,8.07
2023-04-07T06:40:52.350Z,8.57
2023-04-07T06:43:19.648Z,8.00
2023-04-07T06:46:07.506Z,8.27
2023-04-07T06:48:34.893Z,8.32
2023-04-07T06:51:02.194Z,8.27
2023-04-07T06:53:29.476Z,8.50
2023-04-07T06:56:23.174Z,9.20
2023-04-07T06:58:51.130Z,8.30
2023-04-07T07:01:18.534Z,8.27
2023-04-07T07:03:46.871Z,7.85
2023-04-07T07:06:14.432Z,8.02
2023-04-07T07:08:41.742Z,8.20
2023-04-07T07:11:09.124Z,8.55
2023-04-07T07:13:36.976Z,8.43
2023-04-07T07:16:04.527Z,8.20
2023-04-07T07:18:32.007Z,8.52
2023-04-07T07:20:59.346Z,9.00
2023-04-07T07:23:26.726Z,7.75
2023-04-07T07:25:53.987Z,8.40
2023-04-07T07:28:21.940Z,7.65
2023-04-07T07:30:49.347Z,7.30
2023-04-07T07:33:16.654Z,7.82
2023-04-07T07:35:43.979Z,8.50
2023-04-07T07:38:11.446Z,9.05
2023-04-07T07:40:38.780Z,8.20
2023-04-07T07:43:06.639Z,8.10
2023-04-07T07:45:33.963Z,7.97
2023-04-07T07:48:01.530Z,9.13
2023-04-07T07:50:28.958Z,8.63
2023-04-07T07:52:56.262Z,8.93
2023-04-07T07:55:23.633Z,8.13
2023-04-07T07:57:51.052Z,8.25
2023-04-07T08:00:18.552Z,8.65
2023-04-07T08:02:46.384Z,7.90
2023-04-07T08:05:13.803Z,7.90
2023-04-07T08:07:43.104Z,8.23
2023-04-07T08:10:10.681Z,8.57
2023-04-07T08:12:38.029Z,8.38
2023-04-07T08:15:06.421Z,8.27
2023-04-07T08:17:33.807Z,7.88
2023-04-07T08:20:01.282Z,8.60
2023-04-07T08:22:28.557Z,8.50
2023-04-07T08:24:56.092Z,7.65
2023-04-07T08:27:23.416Z,7.90
2023-04-07T08:30:02.114Z,7.82
2023-04-07T08:32:36.674Z,7.95
2023-04-07T08:35:04.313Z,8.60
2023-04-07T08:37:32.507Z,8.27
2023-04-07T08:40:00.285Z,8.35
2023-04-07T08:42:29.822Z,7.80
2023-04-07T08:45:01.251Z,8.18
2023-04-07T08:47:28.897Z,9.20
2023-04-07T08:50:11.181Z,8.00
2023-04-07T08:52:48.878Z,9.10
2023-04-07T08:55:16.309Z,8.05
2023-04-07T08:57:43.776Z,8.65
2023-04-07T09:00:11.684Z,8.05
2023-04-07T09:02:40.450Z,7.80
2023-04-07T09:05:08.772Z,7.82
2023-04-07T09:07:37.090Z,7.90
2023-04-07T09:10:05.333Z,7.93
2023-04-07T09:12:33.324Z,8.05
2023-04-07T09:15:00.743Z,8.35
2023-04-07T09:17:28.691Z,7.78
2023-04-07T09:19:57.078Z,7.80
2023-04-07T09:22:45.694Z,7.38
2023-04-07T09:25:22.964Z,7.43
2023-04-07T09:28:00.214Z,8.32
2023-04-07T09:30:28.205Z,8.60
2023-04-07T09:32:55.932Z,8.07
2023-04-07T09:35:23.979Z,7.93
2023-04-07T09:38:09.710Z,8.20
2023-04-07T09:40:37.614Z,8.40
2023-04-07T09:43:05.668Z,7.97
2023-04-07T09:45:36.128Z,8.05
2023-04-07T09:48:08.691Z,7.80
2023-04-07T09:50:38.820Z,8.65
2023-04-07T09:53:06.164Z,8.20
2023-04-07T09:55:33.911Z,8.50
2023-04-07T09:58:01.312Z,8.38
2023-04-07T10:00:28.635Z,7.72
2023-04-07T10:02:56.505Z,7.68
2023-04-07T10:05:24.039Z,7.90
2023-04-07T10:07:51.554Z,7.43
2023-04-07T10:10:19.037Z,7.60
2023-04-07T10:12:46.441Z,7.68
2023-04-07T10:15:15.855Z,7.80
2023-04-07T10:17:49.774Z,7.32
2023-04-07T10:20:18.640Z,8.05
2023-04-07T10:22:45.965Z,8.45
2023-04-07T10:25:14.702Z,8.32
2023-04-07T10:27:52.216Z,7.55
2023-04-07T10:30:25.315Z,7.70
2023-04-07T10:32:53.914Z,8.15
2023-04-07T10:35:22.142Z,7.40
2023-04-07T10:38:07.944Z,19.08
2023-04-07T10:40:36.355Z,8.25
2023-04-07T10:43:04.646Z,8.02
2023-04-07T10:45:48.561Z,8.35
2023-04-07T10:48:17.259Z,7.78
2023-04-07T10:51:06.114Z,7.88
2023-04-07T10:53:34.066Z,8.13
2023-04-07T10:56:01.469Z,10.88
2023-04-07T10:58:32.754Z,8.02
2023-04-07T11:01:00.537Z,8.50
2023-04-07T11:03:29.026Z,7.78
2023-04-07T11:06:09.446Z,8.27
2023-04-07T11:08:42.267Z,8.23
2023-04-07T11:11:11.233Z,7.90
2023-04-07T11:13:44.895Z,8.18
2023-04-07T11:16:12.637Z,8.52
2023-04-07T11:18:40.146Z,7.95
2023-04-07T11:21:08.129Z,8.00
2023-04-07T11:23:42.542Z,7.78
2023-04-07T11:28:52.812Z,7.85
2023-04-07T11:31:27.722Z,7.72
2023-04-07T11:33:56.148Z,7.80
2023-04-07T11:36:30.893Z,7.85
2023-04-07T11:38:58.736Z,7.43
2023-04-07T11:41:27.755Z,7.75
2023-04-07T11:44:11.376Z,7.70
2023-04-07T11:47:01.147Z,7.65
2023-04-07T11:49:29.000Z,7.90
2023-04-07T11:52:04.697Z,8.05
2023-04-07T11:54:47.045Z,7.35
2023-04-07T11:57:14.749Z,7.88
2023-04-07T11:59:42.186Z,7.72
2023-04-07T12:02:10.054Z,7.70
2023-04-07T12:04:40.152Z,7.40
2023-04-07T12:07:09.042Z,7.55
2023-04-07T12:09:37.498Z,7.38
2023-04-07T12:12:08.504Z,7.57
2023-04-07T12:14:36.629Z,7.80
2023-04-07T12:17:04.403Z,6.88
2023-04-07T12:19:36.082Z,7.20
2023-04-07T12:22:03.809Z,7.15
2023-04-07T12:24:32.579Z,7.90
2023-04-07T12:27:00.238Z,7.22
2023-04-07T12:29:28.010Z,7.40
2023-04-07T12:31:56.298Z,7.63
2023-04-07T12:34:23.730Z,7.30
2023-04-07T12:36:51.675Z,7.10
2023-04-07T12:39:19.003Z,7.13
2023-04-07T12:41:47.598Z,7.80
2023-04-07T12:44:16.049Z,7.25
2023-04-07T12:46:43.499Z,7.90
2023-04-07T12:49:11.037Z,8.60
2023-04-07T12:51:40.037Z,6.95
2023-04-07T12:54:07.723Z,7.38
2023-04-07T12:56:35.400Z,8.07
2023-04-07T12:59:02.877Z,7.30
2023-04-07T13:01:30.582Z,7.38
2023-04-07T13:03:58.118Z,6.97
2023-04-07T13:06:25.628Z,7.90
2023-04-07T13:08:52.954Z,11.25
2023-04-07T13:11:21.921Z,8.07
2023-04-07T13:13:49.447Z,7.95
2023-04-07T13:16:17.058Z,7.93
2023-04-07T13:18:44.409Z,7.20
2023-04-07T13:21:42.567Z,8.10
2023-04-07T13:23:59.177Z,8.35
2023-04-07T13:26:26.593Z,7.45
2023-04-07T13:28:54.045Z,7.55
2023-04-07T13:31:22.149Z,8.70
2023-04-07T13:33:49.974Z,7.15
2023-04-07T13:36:17.588Z,7.32
2023-04-07T13:38:45.224Z,7.20
2023-04-07T13:41:12.579Z,7.57
2023-04-07T13:43:39.852Z,7.38
2023-04-07T13:46:17.192Z,8.50
2023-04-07T13:48:52.278Z,7.53
2023-04-07T13:51:19.616Z,8.88
2023-04-07T13:53:47.899Z,8.35
2023-04-07T13:56:15.580Z,6.75
2023-04-07T13:58:42.985Z,7.13
2023-04-07T14:01:11.376Z,11.90
2023-04-07T14:03:38.980Z,7.47
2023-04-07T14:06:06.479Z,7.05
2023-04-07T14:08:34.032Z,7.40
2023-04-07T14:11:01.970Z,6.93
2023-04-07T14:13:29.350Z,7.45
2023-04-07T14:15:56.742Z,7.32
2023-04-07T14:18:24.735Z,6.93
2023-04-07T14:20:52.131Z,7.28
2023-04-07T14:23:30.250Z,7.25
2023-04-07T14:26:03.766Z,7.38
2023-04-07T14:28:31.745Z,7.65
2023-04-07T14:30:59.110Z,7.50
2023-04-07T14:33:26.694Z,7.60
2023-04-07T14:35:54.156Z,7.45
2023-04-07T14:38:24.375Z,7.13
2023-04-07T14:40:54.647Z,7.22
2023-04-07T14:43:21.968Z,7.60
2023-04-07T14:45:49.362Z,7.20
2023-04-07T14:48:17.181Z,7.05
2023-04-07T14:50:44.617Z,6.70
2023-04-07T14:53:12.109Z,6.60
2023-04-07T14:55:41.454Z,6.25
2023-04-07T14:58:08.920Z,7.50
2023-04-07T15:00:36.242Z,6.40
2023-04-07T15:03:03.846Z,6.00
2023-04-07T15:05:31.328Z,6.05
2023-04-07T15:07:58.838Z,7.20
2023-04-07T15:10:26.137Z,6.05
2023-04-07T15:12:53.441Z,6.57
2023-04-07T15:15:20.985Z,6.18
2023-04-07T15:17:48.298Z,6.50
2023-04-07T15:20:15.650Z,6.43
2023-04-07T15:22:42.967Z,6.63
2023-04-07T15:25:10.624Z,6.28
2023-04-07T15:27:37.932Z,6.43
2023-04-07T15:30:05.888Z,6.55
2023-04-07T15:32:33.293Z,6.38
2023-04-07T15:35:00.830Z,6.82
2023-04-07T15:37:28.188Z,7.30
2023-04-07T15:39:55.899Z,6.70
2023-04-07T15:42:23.207Z,6.30
2023-04-07T15:44:50.800Z,6.60
2023-04-07T15:47:18.086Z,6.63
2023-04-07T15:49:45.394Z,6.32
2023-04-07T15:52:13.618Z,6.72
2023-04-07T15:54:40.932Z,6.75
2023-04-07T15:57:08.694Z,6.90
2023-04-07T15:59:36.253Z,7.18
2023-04-07T16:02:03.747Z,6.13
2023-04-07T16:04:31.216Z,5.30
2023-04-07T16:06:58.632Z,5.20
2023-04-07T16:09:26.194Z,6.80
2023-04-07T16:11:54.984Z,7.18
2023-04-07T16:14:22.288Z,7.50
2023-04-07T16:16:53.646Z,7.50
2023-04-07T16:19:21.005Z,6.90
2023-04-07T16:21:48.373Z,6.90
2023-04-07T16:24:15.700Z,7.40
2023-04-07T16:26:43.038Z,7.03
2023-04-07T16:29:10.818Z,7.30
2023-04-07T16:31:38.158Z,6.60
2023-04-07T16:34:05.621Z,7.10
2023-04-07T16:36:32.945Z,7.13
2023-04-07T16:39:00.546Z,6.85
2023-04-07T16:41:27.867Z,6.82
2023-04-07T16:43:55.148Z,6.57
2023-04-07T16:46:25.968Z,6.25
2023-04-07T16:48:53.529Z,6.28
2023-04-07T16:51:20.959Z,6.82
2023-04-07T16:53:48.658Z,6.72
2023-04-07T16:56:17.114Z,6.53
2023-04-07T16:58:44.504Z,6.35
2023-04-07T17:01:11.931Z,6.50
2023-04-07T17:03:40.319Z,6.40
2023-04-07T17:06:07.760Z,6.93
2023-04-07T17:08:35.870Z,7.18
2023-04-07T17:11:07.170Z,7.38
2023-04-07T17:13:34.508Z,6.70
2023-04-07T17:16:02.954Z,7.03
2023-04-07T17:18:30.546Z,6.95
2023-04-07T17:20:57.837Z,7.20
2023-04-07T17:23:25.557Z,6.90
2023-04-07T17:25:52.909Z,6.93
2023-04-07T17:28:20.248Z,6.88
2023-04-07T17:30:47.636Z,6.53
2023-04-07T17:33:14.934Z,6.88
2023-04-07T17:35:42.389Z,6.93
2023-04-07T17:38:09.755Z,6.97
2023-04-07T17:40:37.100Z,7.30
2023-04-07T17:43:04.631Z,7.30
2023-04-07T17:45:32.958Z,7.35
2023-04-07T17:48:03.961Z,7.30
2023-04-07T17:50:32.021Z,7.93
2023-04-07T17:53:00.437Z,7.75
2023-04-07T17:55:28.420Z,8.40
2023-04-07T17:58:00.703Z,7.78
2023-04-07T18:00:28.741Z,7.43
2023-04-07T18:02:56.375Z,6.78
2023-04-07T18:05:24.118Z,7.80
2023-04-07T18:07:51.681Z,7.97
2023-04-07T18:10:18.987Z,7.47
2023-04-07T18:12:46.293Z,7.75
2023-04-07T18:15:14.557Z,7.93
2023-04-07T18:17:42.563Z,7.28
2023-04-07T18:20:10.494Z,7.50
2023-04-07T18:22:38.108Z,7.43
2023-04-07T18:25:06.605Z,7.80
2023-04-07T18:27:33.928Z,7.70
2023-04-07T18:30:01.277Z,7.65
2023-04-07T18:32:28.673Z,7.90
2023-04-07T18:34:56.234Z,7.43
2023-04-07T18:37:23.608Z,7.57
2023-04-07T18:39:52.208Z,7.93
2023-04-07T18:42:19.563Z,7.97
2023-04-07T18:44:46.901Z,7.53
2023-04-07T18:47:14.297Z,7.57
2023-04-07T18:49:41.609Z,7.57
2023-04-07T18:52:09.054Z,7.55
2023-04-07T18:54:36.438Z,8.48
2023-04-07T18:57:04.621Z,7.75
2023-04-07T18:59:31.965Z,7.93
2023-04-07T19:01:59.346Z,7.82
2023-04-07T19:04:26.742Z,8.05
2023-04-07T19:06:54.689Z,8.10
2023-04-07T19:09:21.989Z,8.20
2023-04-07T19:11:49.340Z,7.60
2023-04-07T19:14:16.687Z,7.53
2023-04-07T19:16:44.514Z,7.88
2023-04-07T19:19:13.152Z,7.22
2023-04-07T19:21:41.253Z,7.35
2023-04-07T19:24:08.732Z,7.80
2023-04-07T19:26:36.070Z,7.72
2023-04-07T19:29:03.574Z,8.68
2023-04-07T19:31:31.354Z,8.55
2023-04-07T19:33:59.133Z,8.65
2023-04-07T19:36:26.524Z,8.15
2023-04-07T19:38:54.375Z,8.13
2023-04-07T19:41:21.962Z,8.73
2023-04-07T19:43:49.453Z,8.35
2023-04-07T19:46:17.116Z,9.13
2023-04-07T19:48:44.483Z,8.55
2023-04-07T19:51:11.828Z,8.77
2023-04-07T19:53:39.160Z,8.80
2023-04-07T19:56:06.540Z,8.30
2023-04-07T19:58:34.497Z,9.68
2023-04-07T20:01:04.519Z,9.10
2023-04-07T20:03:32.169Z,8.75
2023-04-07T20:05:59.716Z,9.20
2023-04-07T20:08:27.052Z,8.65
2023-04-07T20:10:54.396Z,9.10
2023-04-07T20:13:23.163Z,10.02
2023-04-07T20:15:50.509Z,9.75
2023-04-07T20:18:18.601Z,10.02
2023-04-07T20:20:46.338Z,9.10
2023-04-07T20:23:15.966Z,9.07
2023-04-07T20:25:43.367Z,10.52
2023-04-07T20:28:10.728Z,9.80
2023-04-07T20:30:38.151Z,9.80
2023-04-07T20:33:05.531Z,10.02
2023-04-07T20:35:32.860Z,9.60
2023-04-07T20:38:00.296Z,9.57
2023-04-07T20:40:27.737Z,10.80
2023-04-07T20:42:55.145Z,9.98
2023-04-07T20:45:23.056Z,10.20
2023-04-07T20:47:50.997Z,10.88
2023-04-07T20:50:18.455Z,10.45
2023-04-07T20:52:45.821Z,10.48
2023-04-07T20:55:13.248Z,10.75
2023-04-07T20:57:44.511Z,11.70
2023-04-07T21:00:12.013Z,10.80
2023-04-07T21:02:39.651Z,11.20
2023-04-07T21:05:07.312Z,11.52
2023-04-07T21:07:34.653Z,12.13
2023-04-07T21:10:02.464Z,11.20
2023-04-07T21:12:29.743Z,12.13
2023-04-07T21:14:57.067Z,10.98
2023-04-07T21:17:24.439Z,11.07
2023-04-07T21:19:52.343Z,11.55
2023-04-07T21:22:19.737Z,11.07
2023-04-07T21:24:47.278Z,11.88
2023-04-07T21:27:14.639Z,11.20
2023-04-07T21:29:42.593Z,11.52
2023-04-07T21:32:10.575Z,11.13
2023-04-07T21:34:37.915Z,10.75
2023-04-07T21:37:05.443Z,10.25
2023-04-07T21:39:33.038Z,12.55
2023-04-07T21:42:01.463Z,12.23
2023-04-07T21:44:28.728Z,11.20
2023-04-07T21:46:56.225Z,11.73
2023-04-07T21:49:25.300Z,12.02
2023-04-07T21:51:52.647Z,12.32
2023-04-07T21:54:20.022Z,12.20
2023-04-07T21:56:49.170Z,11.88
2023-04-07T21:59:17.338Z,11.25
2023-04-07T22:01:46.833Z,11.85
2023-04-07T22:04:14.650Z,12.15
2023-04-07T22:06:42.059Z,11.82
2023-04-07T22:09:09.570Z,11.73
2023-04-07T22:11:36.857Z,12.65
2023-04-07T22:14:04.178Z,12.18
2023-04-07T22:16:31.601Z,11.73
2023-04-07T22:18:59.159Z,12.45
2023-04-07T22:21:28.987Z,12.50
2023-04-07T22:23:56.328Z,12.30
2023-04-07T22:26:23.695Z,12.27
2023-04-07T22:28:51.283Z,11.90
2023-04-07T22:31:18.845Z,12.27
2023-04-07T22:33:46.355Z,13.45
2023-04-07T22:36:13.683Z,12.45
2023-04-07T22:38:41.022Z,13.23
2023-04-07T22:41:08.319Z,13.25
2023-04-07T22:43:35.755Z,13.23
2023-04-07T22:46:03.067Z,12.45
2023-04-07T22:48:30.765Z,13.68
2023-04-07T22:50:58.061Z,15.52
2023-04-07T22:53:25.374Z,18.15
2023-04-07T22:55:52.815Z,16.23
2023-04-07T22:58:20.296Z,13.27
2023-04-07T23:00:47.691Z,14.00
2023-04-07T23:03:15.125Z,13.68
2023-04-07T23:05:42.605Z,13.20
2023-04-07T23:08:09.893Z,12.82
2023-04-07T23:10:37.237Z,13.70
2023-04-07T23:13:04.545Z,13.35
2023-04-07T23:15:34.354Z,12.73
2023-04-07T23:18:01.804Z,13.50
2023-04-07T23:20:29.214Z,12.45
2023-04-07T23:22:56.539Z,13.57
2023-04-07T23:25:23.976Z,13.98
2023-04-07T23:27:51.315Z,13.65
2023-04-07T23:30:18.700Z,13.85
2023-04-07T23:32:46.256Z,13.30
2023-04-07T23:35:13.709Z,13.32
2023-04-07T23:37:41.545Z,12.43
2023-04-07T23:40:10.433Z,12.43
2023-04-07T23:42:37.747Z,12.20
2023-04-07T23:45:05.630Z,12.50
2023-04-07T23:47:32.937Z,12.43
2023-04-07T23:50:00.481Z,11.85
2023-04-07T23:52:28.022Z,11.68
2023-04-07T23:54:55.332Z,12.10
2023-04-07T23:57:22.700Z,11.88
2023-04-07T23:59:50.703Z,11.93
